HKMO/MBA METAR and TAF weather

Enter ICAO airport designator
Station Type Date Time Source
HKMO METAR 2019/08/24 09:00 UTC NOAA

HKMO 240900Z 16009KT 9999 BKN021 28/23 Q1019 NOSIG


Station Type Date Time Source
HKMO Decoded METAR 2019/08/24 09:00 UTC NOAA

Station name not available
Aug 24, 2019 - 05:00 AM EDT / 2019.08.24 0900 UTC
Wind: from the SSE (160 degrees) at 10 MPH (9 KT):0
Visibility: greater than 7 mile(s):0
Sky conditions: mostly cloudy
Temperature: 82 F (28 C)
Dew Point: 73 F (23 C)
Relative Humidity: 74%
Pressure (altimeter): 30.09 in. Hg (1019 hPa)
ob: HKMO 240900Z 16009KT 9999 BKN021 28/23 Q1019 NOSIG
cycle: 9

Station Type Date Time Source
HKMO TAF 2019/08/24 06:48 UTC NOAA

TAF TAF HKMO 240500Z 2406/2512 18010KT 9999 -SHRA SCT018 BKN080
BECMG 2409/2412 18015KT SCT025
BECMG 2500/2506 21005KT FEW022
BECMG 2509/2512 18010KT SCT025

Example: see airport list